Pagrindinis puslapis
METAR-TAF:

METAR-TAF

Oro uostai :

Rygos oro uostas

Ryga, Latvija

platuma: 56-55N, ilguma: 023-58E, Aukštis: 10 m

Dabartinis oras

Ataskaita buvo paskelbta 27 minutes, ne 12:50 UTC
Vėjas 8 kt iš Pietvakarių, svyruoja nuo Pietų/Pietvakarių ir Vakarų
Temperatūra 22°C
Drėgmė 33%
Slėgis 1012 hPa
Matomumas 10 km arba daugiau
nėra debesų žemiau 1500 m ir nėra kamuolinių lietaus debesų

METAR: EVRA 221250Z 23008KT 200V280 CAVOK 22/05 Q1012 NOSIG

Laikas: 16:17 (13:17 UTC)

Prognozė

Ataskaita buvo paskelbta 2 valandos ir 12 minutes, ne 11:05 UTC
Prognozė galioja nuo 22 metu 12 UTC su 23 metu 12 UTC
Vėjas 7 kt iš Pietų/Pietvakarių
Matomumas 10 km arba daugiau
nėra debesų žemiau 1500 m ir nėra kamuolinių lietaus debesų
Laikinai
nuo 22 metu 20 UTC su 23 metu 06 UTC
Matomumas: 3000 m
Išsisklaidę debesys ne aukštis 200 ft
Sekli rūkas, rūkana
Tikimybė 40% :
Laikinai
nuo 23 metu 00 UTC su 23 metu 06 UTC
Matomumas: 0500 m
rūkas

TAF: EVRA 221105Z 2212/2312 21007KT CAVOK TEMPO 2220/2306 3000 MIFG BR SCT002 PROB40 TEMPO 2300/2306 0500 FG

Orai ataskaitas ir orų prognozės (METAR, TAF).

turimą stotys yra geltonos ir raudonos taškus žemėlapyje.

Perkelti pele per norėdami pamatyti stoties vardą.

Tada spustelėkite, norėdami matyti oro stebėjimo ir prognozės.

Norėdami pakeisti žemėlapį: spustelėkite ant žalios mygtukų su juodo kryžiaus žemyn,; žalią mygtuką su brūkšneliu, jei norite nutolinti; arba žalių rodyklių gretimoms žemėlapius.


METAR-TAF: